createdAt,value
2023-01-19T00:03:56.105Z,12.80
2023-01-19T00:09:01.728Z,11.27
2023-01-19T00:14:09.616Z,11.30
2023-01-19T00:19:14.910Z,10.52
2023-01-19T00:24:20.130Z,10.15
2023-01-19T00:29:30.871Z,9.98
2023-01-19T00:34:40.100Z,10.80
2023-01-19T00:39:45.702Z,9.43
2023-01-19T00:44:53.956Z,11.73
2023-01-19T00:49:59.270Z,9.73
2023-01-19T00:55:04.517Z,12.13
2023-01-19T01:00:15.903Z,11.40
2023-01-19T01:05:21.875Z,10.30
2023-01-19T01:10:29.417Z,8.88
2023-01-19T01:15:37.304Z,12.05
2023-01-19T01:20:42.623Z,11.10
2023-01-19T01:25:47.882Z,12.20
2023-01-19T01:30:59.265Z,11.63
2023-01-19T01:36:04.625Z,11.88
2023-01-19T01:41:10.644Z,12.30
2023-01-19T01:46:20.078Z,10.68
2023-01-19T01:51:28.613Z,11.77
2023-01-19T01:56:37.768Z,12.68
2023-01-19T02:01:58.140Z,11.00
2023-01-19T02:07:17.552Z,11.98
2023-01-19T02:12:35.623Z,8.90
2023-01-19T02:17:43.604Z,9.57
2023-01-19T02:22:52.312Z,14.30
2023-01-19T02:28:00.268Z,10.57
2023-01-19T02:33:05.638Z,12.60
2023-01-19T02:38:12.264Z,8.63
2023-01-19T02:43:21.902Z,10.60
2023-01-19T02:48:27.495Z,15.07
2023-01-19T02:54:06.323Z,11.80
2023-01-19T02:59:19.587Z,11.15
2023-01-19T03:04:31.611Z,10.65
2023-01-19T03:09:44.144Z,12.97
2023-01-19T03:14:52.774Z,9.85
2023-01-19T03:19:58.412Z,10.63
2023-01-19T03:25:05.339Z,10.85
2023-01-19T03:30:18.698Z,10.32
2023-01-19T03:35:27.261Z,13.97
2023-01-19T03:40:35.331Z,10.32
2023-01-19T03:45:44.115Z,10.73
2023-01-19T03:50:50.093Z,10.45
2023-01-19T03:55:55.626Z,9.23
2023-01-19T04:01:04.276Z,10.73
2023-01-19T04:06:09.917Z,8.20
2023-01-19T04:11:15.123Z,7.70
2023-01-19T04:16:23.564Z,11.93
2023-01-19T04:21:29.205Z,10.10
2023-01-19T04:26:34.427Z,16.77
2023-01-19T04:31:42.310Z,11.05
2023-01-19T04:36:51.122Z,10.00
2023-01-19T04:41:57.523Z,11.73
2023-01-19T04:47:05.642Z,15.88
2023-01-19T04:52:11.031Z,11.53
2023-01-19T04:57:16.208Z,11.65
2023-01-19T05:02:24.114Z,12.13
2023-01-19T05:07:30.119Z,11.45
2023-01-19T05:12:36.319Z,10.57
2023-01-19T05:17:44.895Z,12.13
2023-01-19T05:22:52.548Z,12.25
2023-01-19T05:27:57.849Z,12.07
2023-01-19T05:33:05.677Z,13.82
2023-01-19T05:38:10.918Z,14.10
2023-01-19T05:43:16.179Z,16.10
2023-01-19T05:48:24.308Z,13.77
2023-01-19T05:53:29.997Z,12.15
2023-01-19T05:58:35.517Z,10.32
2023-01-19T06:03:43.352Z,10.88
2023-01-19T06:08:48.811Z,10.47
2023-01-19T06:13:54.283Z,12.23
2023-01-19T06:19:02.147Z,12.88
2023-01-19T06:24:08.320Z,10.85
2023-01-19T06:29:14.627Z,10.05
2023-01-19T06:34:22.654Z,9.33
2023-01-19T06:39:27.914Z,9.60
2023-01-19T06:44:33.156Z,7.68
2023-01-19T06:49:41.202Z,7.35
2023-01-19T06:54:46.489Z,6.43
2023-01-19T06:59:51.945Z,8.77
2023-01-19T07:04:59.873Z,8.02
2023-01-19T07:10:05.124Z,10.50
2023-01-19T07:15:12.228Z,12.95
2023-01-19T07:20:20.412Z,15.38
2023-01-19T07:25:27.028Z,15.43
2023-01-19T07:30:32.660Z,19.45
2023-01-19T07:35:40.650Z,18.30
2023-01-19T07:40:47.041Z,16.38
2023-01-19T07:45:53.003Z,15.57
2023-01-19T07:51:10.986Z,19.80
2023-01-19T07:56:17.812Z,16.60
2023-01-19T08:01:23.718Z,17.33
2023-01-19T08:06:37.046Z,17.38
2023-01-19T08:11:42.283Z,17.50
2023-01-19T08:16:47.656Z,12.67
2023-01-19T08:21:56.504Z,14.07
2023-01-19T08:27:02.768Z,13.50
2023-01-19T08:32:08.867Z,14.75
2023-01-19T08:37:16.827Z,18.05
2023-01-19T08:42:22.059Z,16.57
2023-01-19T08:47:27.475Z,19.60
2023-01-19T08:52:35.676Z,19.63
2023-01-19T08:57:41.103Z,22.27
2023-01-19T09:02:46.532Z,19.27
2023-01-19T09:07:54.488Z,19.03
2023-01-19T09:12:59.873Z,19.00
2023-01-19T09:18:05.662Z,20.55
2023-01-19T09:23:15.835Z,21.20
2023-01-19T09:28:21.200Z,23.17
2023-01-19T09:33:27.467Z,28.37
2023-01-19T09:38:35.454Z,21.33
2023-01-19T09:43:45.466Z,20.38
2023-01-19T09:48:54.069Z,19.63
2023-01-19T09:54:16.339Z,21.42
2023-01-19T09:59:25.287Z,19.63
2023-01-19T10:04:34.019Z,19.75
2023-01-19T10:09:52.326Z,23.23
2023-01-19T10:15:05.013Z,22.60
2023-01-19T10:20:18.006Z,22.85
2023-01-19T10:25:26.501Z,29.50
2023-01-19T10:30:32.453Z,27.73
2023-01-19T10:35:37.888Z,24.88
2023-01-19T10:40:51.239Z,27.20
2023-01-19T10:45:57.607Z,28.30
2023-01-19T10:51:06.892Z,27.27
2023-01-19T10:56:19.187Z,25.58
2023-01-19T11:01:26.647Z,29.90
2023-01-19T11:06:34.185Z,28.48
2023-01-19T11:11:49.952Z,19.58
2023-01-19T11:16:59.384Z,25.63
2023-01-19T11:22:21.664Z,29.67
2023-01-19T11:27:30.073Z,24.77
2023-01-19T11:32:37.229Z,27.10
2023-01-19T11:37:43.294Z,25.77
2023-01-19T11:42:51.164Z,24.30
2023-01-19T11:47:57.395Z,37.15
2023-01-19T11:53:08.580Z,28.30
2023-01-19T11:58:19.498Z,24.80
2023-01-19T12:03:30.649Z,24.55
2023-01-19T12:08:39.509Z,26.87
2023-01-19T12:13:49.229Z,27.65
2023-01-19T12:18:58.431Z,25.88
2023-01-19T12:24:11.546Z,28.03
2023-01-19T12:29:22.610Z,26.88
2023-01-19T12:34:36.129Z,22.33
2023-01-19T12:39:51.137Z,19.05
2023-01-19T12:45:10.208Z,24.75
2023-01-19T12:50:21.586Z,31.15
2023-01-19T12:55:31.312Z,26.25
2023-01-19T13:00:44.992Z,21.13
2023-01-19T13:05:56.504Z,27.42
2023-01-19T13:11:18.732Z,25.00
2023-01-19T13:16:59.927Z,24.27
2023-01-19T13:22:53.989Z,21.10
2023-01-19T13:28:01.247Z,20.53
2023-01-19T13:33:19.074Z,24.20
2023-01-19T13:38:29.510Z,20.27
2023-01-19T13:43:40.673Z,19.83
2023-01-19T13:48:56.935Z,23.83
2023-01-19T13:54:06.236Z,23.23
2023-01-19T13:59:15.269Z,27.08
2023-01-19T14:04:34.794Z,23.95
2023-01-19T14:09:42.798Z,27.97
2023-01-19T14:14:49.613Z,31.33
2023-01-19T14:19:56.517Z,21.37
2023-01-19T14:25:24.920Z,20.20
2023-01-19T14:30:32.608Z,26.63
2023-01-19T14:35:38.003Z,20.40
2023-01-19T14:40:46.173Z,20.00
2023-01-19T14:45:51.552Z,21.97
2023-01-19T14:51:03.988Z,17.08
2023-01-19T14:56:13.406Z,17.20
2023-01-19T15:01:18.759Z,24.52
2023-01-19T15:06:24.418Z,24.88
2023-01-19T15:11:35.320Z,23.07
2023-01-19T15:16:55.707Z,21.15
2023-01-19T15:22:00.925Z,19.70
2023-01-19T15:27:12.239Z,22.55
2023-01-19T15:32:18.144Z,18.90
2023-01-19T15:37:25.137Z,21.50
2023-01-19T15:42:33.389Z,17.15
2023-01-19T15:47:38.615Z,19.95
2023-01-19T15:52:43.936Z,19.43
2023-01-19T15:57:52.782Z,17.77
2023-01-19T16:02:58.191Z,17.87
2023-01-19T16:08:03.594Z,18.63
2023-01-19T16:13:11.710Z,20.52
2023-01-19T16:18:17.387Z,18.73
2023-01-19T16:23:22.679Z,15.88
2023-01-19T16:28:30.875Z,16.67
2023-01-19T16:33:36.153Z,18.00
2023-01-19T16:38:41.541Z,14.30
2023-01-19T16:43:53.490Z,13.38
2023-01-19T16:49:02.652Z,14.73
2023-01-19T16:54:08.769Z,14.30
2023-01-19T16:59:19.086Z,13.25
2023-01-19T17:04:26.556Z,16.55
2023-01-19T17:09:31.888Z,12.80
2023-01-19T17:14:39.937Z,15.13
2023-01-19T17:19:45.238Z,15.43
2023-01-19T17:24:50.639Z,15.88
2023-01-19T17:29:58.539Z,16.27
2023-01-19T17:35:03.956Z,14.43
2023-01-19T17:40:11.109Z,15.27
2023-01-19T17:45:27.112Z,26.10
2023-01-19T17:50:34.757Z,23.95
2023-01-19T17:55:40.249Z,19.83
2023-01-19T18:00:48.191Z,29.52
2023-01-19T18:05:56.594Z,21.60
2023-01-19T18:11:04.642Z,25.67
2023-01-19T18:16:15.249Z,22.60
2023-01-19T18:21:21.808Z,18.42
2023-01-19T18:26:30.386Z,21.05
2023-01-19T18:31:38.582Z,24.75
2023-01-19T18:36:44.541Z,25.30
2023-01-19T18:41:49.863Z,25.40
2023-01-19T18:46:58.132Z,24.52
2023-01-19T18:52:04.610Z,24.17
2023-01-19T18:57:09.973Z,22.23
2023-01-19T19:02:17.983Z,23.33
2023-01-19T19:07:23.383Z,23.42
2023-01-19T19:12:28.687Z,21.35
2023-01-19T19:17:38.633Z,21.67
2023-01-19T19:22:43.936Z,23.17
2023-01-19T19:27:54.106Z,19.77
2023-01-19T19:33:02.420Z,19.98
2023-01-19T19:38:07.947Z,22.65
2023-01-19T19:43:13.599Z,24.13
2023-01-19T19:48:21.708Z,21.65
2023-01-19T19:53:27.465Z,23.53
2023-01-19T19:58:33.718Z,28.75
2023-01-19T20:03:42.881Z,28.45
2023-01-19T20:08:48.222Z,17.42
2023-01-19T20:13:53.609Z,19.63
2023-01-19T20:19:04.167Z,18.53
2023-01-19T20:24:19.231Z,17.05
2023-01-19T20:29:28.284Z,18.63
2023-01-19T20:34:36.654Z,19.75
2023-01-19T20:39:46.989Z,15.57
2023-01-19T20:44:52.484Z,18.17
2023-01-19T20:50:00.413Z,19.88
2023-01-19T20:55:08.769Z,15.32
2023-01-19T21:00:15.344Z,19.13
2023-01-19T21:05:23.667Z,16.00
2023-01-19T21:10:29.154Z,15.37
2023-01-19T21:15:34.388Z,16.13
2023-01-19T21:20:42.319Z,13.63
2023-01-19T21:25:52.087Z,20.60
2023-01-19T21:30:58.676Z,14.55
2023-01-19T21:36:07.122Z,11.93
2023-01-19T21:41:16.376Z,14.55
2023-01-19T21:46:28.905Z,17.10
2023-01-19T21:51:39.057Z,13.83
2023-01-19T21:56:45.321Z,17.77
2023-01-19T22:01:50.821Z,15.67
2023-01-19T22:06:58.975Z,14.52
2023-01-19T22:12:04.451Z,17.90
2023-01-19T22:17:12.114Z,15.63
2023-01-19T22:22:20.068Z,15.15
2023-01-19T22:27:25.297Z,13.70
2023-01-19T22:32:30.543Z,20.05
2023-01-19T22:37:40.684Z,19.15
2023-01-19T22:42:48.463Z,17.13
2023-01-19T22:47:53.797Z,19.83
2023-01-19T22:53:01.666Z,16.63
2023-01-19T22:58:06.945Z,17.67
2023-01-19T23:03:12.253Z,18.20
2023-01-19T23:08:20.254Z,20.70
2023-01-19T23:13:25.581Z,22.95
2023-01-19T23:18:31.717Z,20.10
2023-01-19T23:23:39.829Z,25.25
2023-01-19T23:28:45.892Z,20.67
2023-01-19T23:33:51.946Z,21.87
2023-01-19T23:39:01.968Z,17.38
2023-01-19T23:44:07.580Z,19.87
2023-01-19T23:49:13.011Z,20.63
2023-01-19T23:54:20.939Z,18.58
2023-01-19T23:59:26.241Z,21.00
